Weather at Montreal / Pierre Elliott Trudeau International Airport

Public forecast

Using degrees Celsius for public forecast. Weather courtesy of forecast.io.

Current aviation weather report (METAR) for Montreal / Pierre Elliott Trudeau International Airport

Retrieved 2021/10/22 06:38 UTC (17 minutes ago):

CYUL 220638Z VRB02KT 6SM -RA FEW018 BKN030 OVC050 12/11 A2961 RMK SF1SC5SC2 SLP030

Aviation forecast (TAF) for Montreal / Pierre Elliott Trudeau International Airport

Retrieved 2021/10/22 06:42 UTC (13 minutes ago):

TAF CYUL 220538Z 2206/2306 30008KT P6SM SCT006 OVC040 TEMPO 2206/2213 4SM -RA BR OVC006 PROB30 2206/2208 2SM TSRA BR BKN006 OVC040CB FM221300 30012KT P6SM OVC015 TEMPO 2213/2217 BKN025 FM221700 26012KT P6SM BKN025 TEMPO 2217/2302 BKN015 FM230200 VRB03KT P6SM FEW030 RMK NXT FCST BY 220900Z